Time;durP1;ratioP1;P1;durP2;ratioP2;P2;SDS_P1;SDS_P2;PMS_P1;PMS_P2;Temp;Humidity;BMP_temperature;BMP_pressure;BME280_temperature;BME280_humidity;BME280_pressure;Samples;Min_cycle;Max_cycle;Signal;HPM_P1;HPM_P2
2021/09/21 00:02:42;;;;;;;;;;;;;;;;;;;;;
2021/09/21 00:06:26;;;;;;;2.85;2.50;;;16.70;99.90;;;;;;4915178;29;20040;-76
2021/09/21 00:09:04;;;;;;;4.85;3.28;;;16.70;99.90;;;;;;4906178;29;20033;-81
2021/09/21 00:15:12;;;;;;;3.25;2.95;;;16.60;99.90;;;;;;4918824;29;20052;-77
2021/09/21 00:17:49;;;;;;;3.97;2.75;;;16.60;99.90;;;;;;4957149;29;20117;-84
2021/09/21 00:27:25;;;;;;;5.38;3.05;;;16.60;99.90;;;;;;4900547;29;20039;-91
2021/09/21 00:29:51;;;;;;;3.45;2.63;;;16.50;99.90;;;;;;4899949;29;20029;-78
2021/09/21 00:32:46;;;;;;;4.85;3.30;;;16.50;99.90;;;;;;4886306;29;20480;-86
2021/09/21 00:35:18;;;;;;;3.50;3.10;;;16.60;99.90;;;;;;4881265;29;20097;-79
2021/09/21 00:37:46;;;;;;;;;;;16.60;99.90;;;;;;4881402;29;20512;-76
2021/09/21 00:54:14;;;;;;;4.63;2.83;;;16.70;99.90;;;;;;4789311;29;20178;-79
2021/09/21 00:57:05;;;;;;;3.03;2.72;;;16.70;99.90;;;;;;4876080;29;20037;-78
2021/09/21 00:59:48;;;;;;;3.72;3.05;;;16.70;99.90;;;;;;4884738;29;20037;-90
2021/09/21 01:02:28;;;;;;;6.70;2.75;;;16.70;99.90;;;;;;4929325;29;20436;-89
2021/09/21 01:14:57;;;;;;;4.50;2.78;;;;;;;;;;4880583;29;20495;-76
2021/09/21 01:28:12;;;;;;;8.30;3.10;;;16.40;99.90;;;;;;4835683;29;20041;-77
2021/09/21 01:31:04;;;;;;;4.60;3.13;;;16.40;99.90;;;;;;4842529;29;20246;-77
2021/09/21 01:34:17;;;;;;;3.05;2.58;;;16.40;99.90;;;;;;4843041;29;20041;-81
2021/09/21 01:37:32;;;;;;;4.65;2.45;;;16.30;99.90;;;;;;4770032;30;20062;-90
2021/09/21 01:43:54;;;;;;;3.95;3.13;;;16.30;99.90;;;;;;4770910;29;20089;-76
2021/09/21 01:47:02;;;;;;;3.67;3.10;;;16.30;99.90;;;;;;4802051;29;20136;-87
2021/09/21 01:59:12;;;;;;;4.78;3.42;;;16.40;99.90;;;;;;4975660;28;20097;-77
2021/09/21 02:01:47;;;;;;;3.88;3.10;;;16.30;99.90;;;;;;4975848;28;20031;-80
2021/09/21 02:04:27;;;;;;;3.55;2.88;;;16.30;99.90;;;;;;4976114;28;20027;-85
2021/09/21 02:06:57;;;;;;;9.27;3.47;;;16.30;99.90;;;;;;4975795;28;20393;-76
2021/09/21 02:15:47;;;;;;;8.27;3.38;;;16.20;99.90;;;;;;4976969;28;20054;-90
2021/09/21 02:19:34;;;;;;;;;;;;;;;;;;;;;
2021/09/21 02:21:47;;;;;;;4.60;3.45;;;16.20;99.90;;;;;;4957515;28;20035;-80
2021/09/21 02:35:32;;;;;;;5.80;3.45;;;16.10;99.90;;;;;;4859135;29;20055;-78
2021/09/21 02:48:06;;;;;;;4.57;3.30;;;16.10;99.90;;;;;;4917941;28;20071;-76
2021/09/21 02:50:40;;;;;;;10.50;3.63;;;16.00;99.90;;;;;;4916207;29;20526;-76
2021/09/21 02:53:16;;;;;;;9.13;3.15;;;16.00;99.90;;;;;;4940978;28;20031;-86
2021/09/21 02:56:14;;;;;;;4.38;3.90;;;16.00;99.90;;;;;;4975079;28;20050;-88
2021/09/21 02:58:59;;;;;;;4.95;3.53;;;16.00;99.90;;;;;;4975595;28;20130;-91
2021/09/21 03:02:04;;;;;;;5.80;3.55;;;15.90;99.90;;;;;;4975343;28;20054;-79
2021/09/21 03:05:09;;;;;;;;;;;;;;;;;;;;;
2021/09/21 03:18:07;;;;;;;6.15;3.88;;;15.90;99.90;;;;;;4975346;28;20041;-78
2021/09/21 03:27:48;;;;;;;8.43;3.95;;;15.90;99.90;;;;;;4942048;28;20050;-87
2021/09/21 03:30:17;;;;;;;5.35;3.85;;;15.80;99.90;;;;;;4975260;28;20042;-77
2021/09/21 03:33:32;;;;;;;6.97;3.90;;;15.80;99.90;;;;;;4974924;28;20035;-78
2021/09/21 03:36:44;;;;;;;8.48;3.92;;;15.90;99.90;;;;;;4975088;28;20073;-77
2021/09/21 03:46:17;;;;;;;4.47;3.40;;;15.90;99.90;;;;;;4948347;28;20033;-75
2021/09/21 03:48:56;;;;;;;;;;;;;;;;;;;;;
2021/09/21 03:51:47;;;;;;;5.47;3.35;;;15.90;99.90;;;;;;4975434;28;20027;-89
2021/09/21 03:55:09;;;;;;;;;;;;;;;;;;;;;
2021/09/21 04:01:58;;;;;;;6.75;3.70;;;15.90;99.90;;;;;;4912643;29;20127;-89
2021/09/21 04:12:08;;;;;;;;;;;;;;;;;;;;;
2021/09/21 04:26:05;;;;;;;4.07;3.60;;;16.00;99.90;;;;;;4798105;29;20037;-79
2021/09/21 04:29:40;;;;;;;;;;;;;;;;;;;;;
2021/09/21 04:32:14;;;;;;;5.90;3.88;;;16.00;99.90;;;;;;4893281;29;20451;-77
2021/09/21 04:34:43;;;;;;;4.65;3.50;;;16.00;99.90;;;;;;4899438;29;20499;-86
2021/09/21 04:37:42;;;;;;;6.28;3.63;;;16.00;99.90;;;;;;4930623;28;20508;-88
2021/09/21 04:40:11;;;;;;;4.25;3.45;;;16.00;99.90;;;;;;4970337;28;20035;-85
2021/09/21 04:43:16;;;;;;;6.72;3.55;;;16.00;99.90;;;;;;4974223;28;20097;-76
2021/09/21 04:46:20;;;;;;;7.97;4.25;;;16.00;99.90;;;;;;4970386;28;20059;-92
2021/09/21 04:49:21;;;;;;;8.20;3.55;;;16.00;99.90;;;;;;4914850;29;20558;-77
2021/09/21 04:52:06;;;;;;;6.75;3.60;;;16.00;99.90;;;;;;4840192;29;20050;-76
2021/09/21 04:54:37;;;;;;;6.10;4.03;;;15.90;99.90;;;;;;4964462;28;20497;-76
2021/09/21 04:57:57;;;;;;;3.97;3.57;;;15.90;99.90;;;;;;4974546;28;20497;-75
2021/09/21 05:17:22;;;;;;;6.35;3.83;;;15.80;99.90;;;;;;4843778;29;20029;-78
2021/09/21 05:20:09;;;;;;;;;;;;;;;;;;;;;
2021/09/21 05:22:52;;;;;;;6.47;4.10;;;15.80;99.90;;;;;;4902285;29;20044;-91
2021/09/21 05:25:35;;;;;;;5.18;3.90;;;15.70;99.90;;;;;;4972331;28;20126;-85
2021/09/21 05:28:17;;;;;;;7.93;3.95;;;15.70;99.90;;;;;;4977962;28;20027;-87
2021/09/21 05:37:09;;;;;;;8.60;4.28;;;15.80;99.90;;;;;;4956135;29;20046;-80
2021/09/21 05:39:36;;;;;;;6.78;3.75;;;16.10;99.90;;;;;;4975825;28;20045;-84
2021/09/21 05:42:02;;;;;;;7.38;4.20;;;16.80;99.90;;;;;;4976400;28;20158;-79
2021/09/21 05:44:27;;;;;;;5.90;3.97;;;17.50;99.90;;;;;;4977642;28;20110;-78
2021/09/21 05:47:12;;;;;;;;;;;;;;;;;;;;;
2021/09/21 05:50:04;;;;;;;6.00;3.63;;;18.30;99.90;;;;;;4975754;28;20031;-77
2021/09/21 05:56:00;;;;;;;6.63;3.38;;;19.20;99.90;;;;;;4976046;28;20045;-92
2021/09/21 05:58:34;;;;;;;7.20;3.17;;;19.70;99.90;;;;;;4976167;28;20055;-86
2021/09/21 06:01:01;;;;;;;5.50;3.72;;;19.80;99.90;;;;;;4975953;28;20038;-79
2021/09/21 06:03:39;;;;;;;3.50;2.90;;;20.00;99.90;;;;;;4974767;28;20070;-81
2021/09/21 06:06:04;;;;;;;3.85;2.75;;;20.60;99.90;;;;;;4975909;28;20035;-75
2021/09/21 06:15:11;;;;;;;3.70;2.50;;;21.30;99.90;;;;;;4916566;28;20611;-87
2021/09/21 06:35:13;;;;;;;4.45;2.60;;;23.50;99.90;;;;;;4861172;29;20105;-85
2021/09/21 07:02:02;;;;;;;3.05;2.10;;;25.90;94.80;;;;;;4679586;30;20159;-84
2021/09/21 07:05:04;;;;;;;6.87;2.63;;;25.90;93.90;;;;;;4703681;30;20117;-81
2021/09/21 07:26:24;;;;;;;10.85;2.40;;;26.60;92.80;;;;;;4773954;29;20144;-92
2021/09/21 07:33:04;;;;;;;;;;;;;;;;;;;;;
2021/09/21 07:42:32;;;;;;;3.40;2.15;;;27.40;91.20;;;;;;4771809;29;20047;-85
2021/09/21 07:49:01;;;;;;;6.10;2.22;;;27.00;91.30;;;;;;4877934;29;20167;-90
2021/09/21 07:53:16;;;;;;;;;;;;;;;;;;;;;
2021/09/21 07:59:31;;;;;;;;;;;;;;;;;;;;;
2021/09/21 08:16:52;;;;;;;5.13;2.10;;;27.50;88.60;;;;;;4854098;29;20090;-79
2021/09/21 08:53:01;;;;;;;3.08;2.22;;;25.50;91.50;;;;;;4844792;28;20175;-79
2021/09/21 08:59:55;;;;;;;8.75;2.85;;;23.80;92.40;;;;;;4982025;28;20038;-93
2021/09/21 09:23:26;;;;;;;6.67;2.47;;;23.80;93.10;;;;;;4832027;29;20037;-92
2021/09/21 09:32:56;;;;;;;3.38;2.30;;;22.90;93.60;;;;;;4790866;29;20080;-92
2021/09/21 09:35:22;;;;;;;7.25;2.53;;;23.00;93.80;;;;;;4790864;30;20048;-92
2021/09/21 09:37:47;;;;;;;4.95;2.63;;;23.10;93.20;;;;;;4871416;29;20036;-86
2021/09/21 09:40:13;;;;;;;3.63;2.58;;;23.10;93.40;;;;;;4937870;29;20134;-92
2021/09/21 09:47:22;;;;;;;3.63;2.42;;;23.80;93.40;;;;;;4918077;28;20151;-85
2021/09/21 09:49:49;;;;;;;3.25;2.15;;;23.60;92.80;;;;;;4913652;28;20063;-77
2021/09/21 10:02:50;;;;;;;;;;;;;;;;;;;;;
2021/09/21 10:16:14;;;;;;;16.33;2.78;;;23.50;94.00;;;;;;4901665;29;20063;-91
2021/09/21 10:19:26;;;;;;;3.70;2.47;;;23.50;93.60;;;;;;4900105;29;20128;-83
2021/09/21 10:22:15;;;;;;;4.07;2.53;;;23.50;93.80;;;;;;4905852;29;20127;-92
2021/09/21 10:49:57;;;;;;;4.95;2.60;;;23.20;94.10;;;;;;4800593;29;20119;-94
2021/09/21 10:53:24;;;;;;;3.97;2.60;;;23.20;94.00;;;;;;4836747;29;20053;-81
2021/09/21 10:56:19;;;;;;;2.47;2.17;;;23.00;94.40;;;;;;4788643;29;20058;-90
2021/09/21 11:06:08;;;;;;;2.92;1.83;;;23.80;93.00;;;;;;4827295;29;20037;-86
2021/09/21 11:16:20;;;;;;;6.50;3.03;;;23.70;93.20;;;;;;4869195;28;20067;-80
2021/09/21 11:22:40;;;;;;;;;;;;;;;;;;;;;
2021/09/21 11:25:33;;;;;;;2.40;2.08;;;23.40;93.40;;;;;;4975315;28;20022;-81
2021/09/21 11:35:11;;;;;;;;;;;;;;;;;;;;;
2021/09/21 11:41:57;;;;;;;7.25;2.20;;;23.80;93.10;;;;;;4975477;28;20071;-82
2021/09/21 11:44:50;;;;;;;9.32;2.00;;;23.70;92.80;;;;;;4974349;28;20481;-79
2021/09/21 11:54:23;;;;;;;2.42;2.22;;;23.50;92.60;;;;;;4953385;28;20140;-81
2021/09/21 11:57:06;;;;;;;12.05;2.40;;;23.50;92.60;;;;;;4952399;28;20046;-81
2021/09/21 12:07:52;;;;;;;2.97;2.10;;;23.40;92.30;;;;;;4946534;28;20095;-87
2021/09/21 12:14:11;;;;;;;2.07;1.87;;;23.30;92.40;;;;;;4960335;28;20116;-82
2021/09/21 12:23:33;;;;;;;4.88;2.38;;;22.90;92.70;;;;;;4962400;28;20461;-81
2021/09/21 12:54:50;;;;;;;2.67;2.23;;;22.50;93.00;;;;;;4739626;30;20118;-81
2021/09/21 13:08:44;;;;;;;;;;;;;;;;;;;;;
2021/09/21 13:28:53;;;;;;;;;;;;;;;;;;;;;
2021/09/21 13:35:24;;;;;;;6.05;2.40;;;22.50;92.80;;;;;;4832646;29;19930;-95
2021/09/21 13:48:39;;;;;;;3.38;2.15;;;22.40;93.30;;;;;;4831717;29;20230;-94
2021/09/21 13:55:15;;;;;;;2.55;1.92;;;22.50;92.70;;;;;;4957537;29;20564;-92
2021/09/21 14:40:37;;;;;;;;;;;;;;;;;;;;;
2021/09/21 14:43:44;;;;;;;;;;;;;;;;;;;;;
2021/09/21 15:00:37;;;;;;;;;;;;;;;;;;;;;
2021/09/21 15:45:12;;;;;;;3.58;2.67;;;21.60;93.90;;;;;;4993113;28;20065;-86
2021/09/21 15:51:35;;;;;;;10.10;2.58;;;21.60;93.80;;;;;;4993213;28;20037;-89
2021/09/21 16:28:07;;;;;;;14.23;3.38;;;20.90;94.60;;;;;;4914907;29;20063;-88
2021/09/21 16:48:43;;;;;;;7.70;5.35;;;20.50;95.40;;;;;;4931713;28;20430;-87
2021/09/21 17:29:45;;;;;;;3.92;3.22;;;19.60;97.10;;;;;;4849719;29;20034;-80
2021/09/21 17:32:14;;;;;;;5.18;3.15;;;19.50;97.40;;;;;;4832787;29;20038;-90
2021/09/21 17:34:46;;;;;;;4.15;2.92;;;19.40;97.60;;;;;;4854351;29;20053;-90
2021/09/21 17:37:15;;;;;;;3.17;2.88;;;19.30;97.70;;;;;;4901564;29;20040;-81
2021/09/21 17:39:53;;;;;;;4.32;3.33;;;19.30;97.70;;;;;;4938395;28;20030;-81
2021/09/21 17:42:41;;;;;;;3.63;3.00;;;19.30;97.70;;;;;;5002673;28;20030;-85
2021/09/21 17:46:08;;;;;;;6.20;3.10;;;19.20;97.70;;;;;;5001967;28;20046;-82
2021/09/21 17:48:15;;;;;;;4.50;3.45;;;19.20;97.80;;;;;;4990007;28;20046;-85
2021/09/21 17:50:42;;;;;;;4.05;3.35;;;19.10;97.80;;;;;;5001418;28;20034;-89
2021/09/21 17:53:11;;;;;;;5.03;3.50;;;19.10;97.90;;;;;;4999506;28;20027;-86
2021/09/21 17:55:39;;;;;;;6.20;3.30;;;19.00;98.00;;;;;;5001599;28;20042;-79
2021/09/21 17:58:05;;;;;;;5.07;3.08;;;19.00;98.10;;;;;;5000732;28;20085;-88
2021/09/21 18:00:32;;;;;;;4.18;3.70;;;19.00;98.00;;;;;;5001922;28;20030;-79
2021/09/21 18:03:07;;;;;;;5.85;3.08;;;18.90;98.20;;;;;;5001559;28;20089;-79
2021/09/21 18:05:34;;;;;;;6.20;3.30;;;18.90;98.40;;;;;;4999797;28;20500;-80
2021/09/21 18:14:46;;;;;;;7.67;3.57;;;18.70;98.90;;;;;;4943171;28;20145;-79
2021/09/21 18:17:15;;;;;;;6.22;3.85;;;18.70;99.10;;;;;;4994661;28;20321;-88
2021/09/21 18:19:55;;;;;;;7.00;4.00;;;18.70;99.20;;;;;;4994618;28;20061;-89
2021/09/21 18:22:59;;;;;;;4.68;3.85;;;18.60;99.40;;;;;;4994853;28;20030;-83
2021/09/21 18:25:25;;;;;;;4.43;3.75;;;18.50;99.60;;;;;;4995506;28;20084;-88
2021/09/21 18:27:51;;;;;;;5.30;4.03;;;18.50;99.80;;;;;;4995173;28;20037;-89
2021/09/21 18:30:17;;;;;;;5.57;3.63;;;18.50;99.90;;;;;;4995199;28;20105;-90
2021/09/21 18:32:43;;;;;;;6.57;3.50;;;18.40;99.90;;;;;;4996521;28;20031;-90
2021/09/21 18:35:10;;;;;;;6.10;3.88;;;18.40;99.90;;;;;;4995956;28;20030;-88
2021/09/21 18:37:36;;;;;;;5.30;3.90;;;18.30;99.90;;;;;;4995389;28;20126;-87
2021/09/21 18:40:06;;;;;;;6.93;3.92;;;18.20;99.90;;;;;;4994772;28;20089;-91
2021/09/21 18:42:32;;;;;;;9.80;3.97;;;18.20;99.90;;;;;;4994338;28;20096;-87
2021/09/21 18:44:58;;;;;;;7.45;4.05;;;18.20;99.90;;;;;;4994684;28;20038;-87
2021/09/21 18:47:24;;;;;;;5.85;4.00;;;18.10;99.90;;;;;;4994801;28;20066;-89
2021/09/21 18:49:50;;;;;;;5.47;4.25;;;18.00;99.90;;;;;;4994255;28;20081;-86
2021/09/21 18:52:16;;;;;;;4.88;3.80;;;18.00;99.90;;;;;;4994550;28;20030;-86
2021/09/21 18:54:42;;;;;;;8.93;4.25;;;18.00;99.90;;;;;;4996376;28;20050;-93
2021/09/21 18:57:09;;;;;;;5.63;3.92;;;18.00;99.90;;;;;;4994985;28;20031;-87
2021/09/21 18:59:36;;;;;;;6.00;4.22;;;18.00;99.90;;;;;;4995176;28;20034;-88
2021/09/21 19:02:02;;;;;;;6.63;4.30;;;18.00;99.90;;;;;;4995267;28;20031;-89
2021/09/21 19:04:28;;;;;;;5.20;3.80;;;18.00;99.90;;;;;;4993757;28;20081;-84
2021/09/21 19:06:57;;;;;;;7.15;4.20;;;17.90;99.90;;;;;;4995135;28;20027;-90
2021/09/21 19:09:24;;;;;;;7.50;3.78;;;17.90;99.90;;;;;;4994788;28;20041;-88
2021/09/21 19:11:50;;;;;;;6.97;3.67;;;17.90;99.90;;;;;;4995184;28;20447;-90
2021/09/21 19:14:16;;;;;;;7.30;3.75;;;17.90;99.90;;;;;;4994892;28;20030;-81
2021/09/21 19:16:43;;;;;;;6.68;3.95;;;17.80;99.90;;;;;;4993281;28;20045;-80
2021/09/21 19:19:09;;;;;;;8.32;4.10;;;17.80;99.90;;;;;;4993449;28;20511;-76
2021/09/21 19:21:35;;;;;;;12.40;4.45;;;17.80;99.90;;;;;;4993729;28;20069;-89
2021/09/21 19:24:01;;;;;;;5.32;4.07;;;17.80;99.90;;;;;;4993801;28;20125;-78
2021/09/21 19:26:27;;;;;;;4.38;3.50;;;17.80;99.90;;;;;;4994758;28;20023;-78
2021/09/21 19:28:53;;;;;;;4.75;3.47;;;17.80;99.90;;;;;;4997196;28;20036;-76
2021/09/21 19:31:19;;;;;;;5.68;3.80;;;17.80;99.90;;;;;;4994926;28;20030;-86
2021/09/21 19:33:45;;;;;;;6.65;4.00;;;17.90;99.90;;;;;;4994149;28;20038;-78
2021/09/21 19:36:11;;;;;;;7.00;3.90;;;17.90;99.90;;;;;;4993557;28;20085;-75
2021/09/21 19:38:37;;;;;;;5.20;3.95;;;17.90;99.90;;;;;;4993584;28;20030;-90
2021/09/21 19:41:03;;;;;;;8.15;3.83;;;17.90;99.90;;;;;;4993665;28;20107;-85
2021/09/21 19:43:28;;;;;;;9.68;4.05;;;17.80;99.90;;;;;;4994420;28;20030;-79
2021/09/21 19:45:55;;;;;;;9.18;4.05;;;17.80;99.90;;;;;;4994320;28;20034;-81
2021/09/21 19:48:21;;;;;;;7.82;3.97;;;17.80;99.90;;;;;;4993963;28;20046;-87
2021/09/21 19:50:48;;;;;;;5.15;3.92;;;17.80;99.90;;;;;;4994788;28;20030;-76
2021/09/21 19:53:18;;;;;;;4.50;3.53;;;17.80;99.90;;;;;;4994272;28;20105;-90
2021/09/21 19:55:44;;;;;;;4.85;3.58;;;17.70;99.90;;;;;;4994730;28;20035;-89
2021/09/21 19:58:13;;;;;;;7.28;4.53;;;17.70;99.90;;;;;;4995852;28;20034;-92
2021/09/21 20:00:39;;;;;;;5.82;3.95;;;17.70;99.90;;;;;;4995193;28;20502;-75
2021/09/21 20:03:06;;;;;;;6.32;4.03;;;17.70;99.90;;;;;;4994510;28;20499;-88
2021/09/21 20:05:32;;;;;;;5.07;3.67;;;17.80;99.90;;;;;;4993602;28;20035;-94
2021/09/21 20:07:58;;;;;;;5.07;3.95;;;17.80;99.90;;;;;;4993907;28;20027;-75
2021/09/21 20:10:28;;;;;;;5.10;3.72;;;17.70;99.90;;;;;;4993972;28;20034;-90
2021/09/21 20:12:54;;;;;;;4.50;4.05;;;17.70;99.90;;;;;;4978460;28;20428;-89
2021/09/21 20:15:23;;;;;;;5.18;4.07;;;17.70;99.90;;;;;;4994651;28;20484;-92
2021/09/21 20:17:50;;;;;;;5.93;4.25;;;17.70;99.90;;;;;;4994038;28;20022;-73
2021/09/21 20:20:16;;;;;;;5.07;3.88;;;17.70;99.90;;;;;;4994098;28;20046;-75
2021/09/21 20:22:43;;;;;;;5.55;4.25;;;17.70;99.90;;;;;;4996876;28;20022;-88
2021/09/21 20:25:09;;;;;;;6.13;4.13;;;17.70;99.90;;;;;;4993543;28;20035;-88
2021/09/21 20:27:39;;;;;;;7.20;4.70;;;17.60;99.90;;;;;;4994632;28;20065;-80
2021/09/21 20:30:07;;;;;;;9.15;4.35;;;17.60;99.90;;;;;;4997410;28;20480;-91
2021/09/21 20:32:33;;;;;;;5.53;3.83;;;17.60;99.90;;;;;;4997721;28;20038;-89
2021/09/21 20:35:03;;;;;;;6.93;4.20;;;17.50;99.90;;;;;;4998028;28;20042;-90
2021/09/21 20:40:03;;;;;;;6.30;4.65;;;17.50;99.90;;;;;;4997974;28;20030;-73
2021/09/21 20:42:29;;;;;;;6.55;4.32;;;17.40;99.90;;;;;;4997702;28;20034;-91
2021/09/21 20:44:55;;;;;;;8.80;4.22;;;17.40;99.90;;;;;;4996867;28;20457;-78
2021/09/21 20:47:21;;;;;;;6.20;4.03;;;17.40;99.90;;;;;;4997752;28;20456;-90
2021/09/21 20:49:47;;;;;;;10.85;4.25;;;17.30;99.90;;;;;;4999063;28;20059;-76
2021/09/21 20:52:13;;;;;;;13.95;4.07;;;17.30;99.90;;;;;;4999029;28;20060;-74
2021/09/21 20:54:40;;;;;;;12.23;4.60;;;17.30;99.90;;;;;;4998374;28;20070;-92
2021/09/21 20:57:06;;;;;;;6.28;4.32;;;17.30;99.90;;;;;;4997895;28;20129;-76
2021/09/21 20:59:32;;;;;;;5.63;4.70;;;17.30;99.90;;;;;;4998060;28;20124;-82
2021/09/21 21:01:57;;;;;;;7.20;4.07;;;17.30;99.90;;;;;;4997937;28;20030;-82
2021/09/21 21:04:26;;;;;;;6.90;4.63;;;17.20;99.90;;;;;;4997772;28;20030;-89
2021/09/21 21:06:51;;;;;;;6.53;4.20;;;17.20;99.90;;;;;;4997781;28;20117;-81
2021/09/21 21:09:17;;;;;;;6.45;4.28;;;17.30;99.90;;;;;;4997127;28;20061;-75
2021/09/21 21:11:43;;;;;;;6.95;4.15;;;17.20;99.90;;;;;;4996812;28;20469;-86
2021/09/21 21:14:09;;;;;;;5.13;3.85;;;17.20;99.90;;;;;;4996834;28;20058;-73
2021/09/21 21:16:34;;;;;;;5.72;4.10;;;17.20;99.90;;;;;;4996959;28;20045;-79
2021/09/21 21:19:00;;;;;;;7.97;3.72;;;17.20;99.90;;;;;;4996302;28;20064;-76
2021/09/21 21:21:26;;;;;;;8.77;4.63;;;17.20;99.90;;;;;;4996161;28;20039;-82
2021/09/21 21:23:51;;;;;;;5.05;3.90;;;17.20;99.90;;;;;;4996347;28;20110;-86
2021/09/21 21:26:18;;;;;;;5.28;3.53;;;17.20;99.90;;;;;;4996630;28;20034;-75
2021/09/21 21:28:44;;;;;;;7.45;4.28;;;17.20;99.90;;;;;;4996043;28;20030;-84
2021/09/21 21:31:11;;;;;;;10.57;4.10;;;17.20;99.90;;;;;;4996074;28;20492;-87
2021/09/21 21:33:37;;;;;;;6.15;3.83;;;17.20;99.90;;;;;;4995774;28;20029;-86
2021/09/21 21:36:04;;;;;;;5.57;4.30;;;17.10;99.90;;;;;;4995911;28;20042;-85
2021/09/21 21:38:30;;;;;;;9.90;4.55;;;17.10;99.90;;;;;;4995442;28;20097;-90
2021/09/21 21:40:56;;;;;;;10.15;4.13;;;17.10;99.90;;;;;;4995568;28;20118;-87
2021/09/21 21:43:22;;;;;;;13.10;4.32;;;17.10;99.90;;;;;;4995968;28;20105;-77
2021/09/21 21:45:48;;;;;;;7.18;4.47;;;17.10;99.90;;;;;;4995729;28;20038;-84
2021/09/21 21:48:14;;;;;;;5.85;4.30;;;17.10;99.90;;;;;;4995406;28;20493;-84
2021/09/21 21:50:40;;;;;;;6.00;3.83;;;17.10;99.90;;;;;;4995659;28;20552;-85
2021/09/21 21:53:06;;;;;;;6.85;5.03;;;17.20;99.90;;;;;;4995875;28;20038;-84
2021/09/21 21:55:32;;;;;;;5.28;4.15;;;17.10;99.90;;;;;;4995236;28;20061;-85
2021/09/21 21:57:59;;;;;;;7.20;4.45;;;17.10;99.90;;;;;;4995742;28;20121;-85
2021/09/21 22:00:31;;;;;;;6.13;4.68;;;17.10;99.90;;;;;;4995832;28;20514;-88
2021/09/21 22:02:58;;;;;;;7.40;4.50;;;17.10;99.90;;;;;;4995591;28;20062;-84
2021/09/21 22:05:24;;;;;;;6.50;4.60;;;17.10;99.90;;;;;;4995389;28;20034;-89
2021/09/21 22:07:50;;;;;;;6.95;4.28;;;17.10;99.90;;;;;;4995462;28;20034;-86
2021/09/21 22:10:17;;;;;;;14.88;4.75;;;17.10;99.90;;;;;;4995614;28;20481;-76
2021/09/21 22:12:43;;;;;;;8.23;4.25;;;17.10;99.90;;;;;;4995311;28;20061;-87
2021/09/21 22:15:10;;;;;;;10.40;4.70;;;17.10;99.90;;;;;;4995466;28;20047;-87
2021/09/21 22:17:35;;;;;;;6.07;4.47;;;17.00;99.90;;;;;;4995318;28;20041;-84
2021/09/21 22:20:07;;;;;;;9.50;4.32;;;17.00;99.90;;;;;;4995546;28;20034;-74
2021/09/21 22:22:33;;;;;;;8.57;4.95;;;17.00;99.90;;;;;;4995456;28;20063;-88
2021/09/21 22:24:59;;;;;;;6.40;3.90;;;16.90;99.90;;;;;;4995223;28;20579;-88
2021/09/21 22:27:24;;;;;;;7.13;3.70;;;16.90;99.90;;;;;;4995284;28;20026;-86
2021/09/21 22:29:50;;;;;;;7.65;4.60;;;17.00;99.90;;;;;;4994974;28;20038;-88
2021/09/21 22:32:16;;;;;;;5.05;3.95;;;16.90;99.90;;;;;;4995102;28;20026;-76
2021/09/21 22:34:42;;;;;;;7.20;4.68;;;16.80;99.90;;;;;;4994939;28;20073;-76
2021/09/21 22:37:07;;;;;;;7.32;4.43;;;16.80;99.90;;;;;;4995037;28;20034;-77
2021/09/21 22:39:33;;;;;;;7.07;4.82;;;16.70;99.90;;;;;;4994534;28;20029;-76
2021/09/21 22:41:59;;;;;;;4.63;4.07;;;16.70;99.90;;;;;;4994518;28;20038;-81
2021/09/21 22:44:24;;;;;;;6.35;4.38;;;16.60;99.90;;;;;;4995116;28;20031;-89
2021/09/21 22:46:50;;;;;;;6.30;4.63;;;16.60;99.90;;;;;;4994901;28;20034;-88
2021/09/21 22:49:16;;;;;;;9.70;4.47;;;16.50;99.90;;;;;;4994245;28;20108;-81
2021/09/21 22:51:41;;;;;;;6.68;3.83;;;16.60;99.90;;;;;;4993397;28;20271;-85
2021/09/21 22:54:07;;;;;;;7.95;4.25;;;16.60;99.90;;;;;;4994656;28;20033;-84
2021/09/21 22:56:33;;;;;;;7.60;4.05;;;16.60;99.90;;;;;;4994551;28;20053;-86
2021/09/21 22:58:59;;;;;;;8.98;4.15;;;16.60;99.90;;;;;;4994769;28;20117;-87
2021/09/21 23:01:25;;;;;;;7.07;4.38;;;16.60;99.90;;;;;;4994173;28;20503;-85
2021/09/21 23:03:51;;;;;;;4.70;3.80;;;16.70;99.90;;;;;;4994274;28;20030;-75
2021/09/21 23:06:17;;;;;;;9.50;5.25;;;16.70;99.90;;;;;;4994142;28;20094;-89
2021/09/21 23:08:42;;;;;;;8.80;4.45;;;16.70;99.90;;;;;;4994155;28;20026;-74
2021/09/21 23:11:08;;;;;;;5.68;4.68;;;16.70;99.90;;;;;;4994147;28;20030;-76
2021/09/21 23:13:34;;;;;;;6.32;4.50;;;16.60;99.90;;;;;;4993216;28;20108;-81
2021/09/21 23:16:02;;;;;;;7.00;4.65;;;16.50;99.90;;;;;;4993601;28;20046;-75
2021/09/21 23:18:29;;;;;;;8.00;4.60;;;16.40;99.90;;;;;;4993731;28;20484;-81
2021/09/21 23:20:56;;;;;;;8.07;4.80;;;16.40;99.90;;;;;;4994181;28;20031;-87
2021/09/21 23:23:23;;;;;;;11.15;4.35;;;16.30;99.90;;;;;;4993617;28;20066;-82
2021/09/21 23:25:49;;;;;;;6.03;4.28;;;16.20;99.90;;;;;;4976103;28;20489;-76
2021/09/21 23:28:14;;;;;;;6.63;4.43;;;16.20;99.90;;;;;;4993863;28;20030;-75
2021/09/21 23:30:40;;;;;;;7.40;4.85;;;16.20;99.90;;;;;;4993787;28;20030;-87
2021/09/21 23:33:07;;;;;;;7.60;4.65;;;16.20;99.90;;;;;;4994283;28;20066;-82
2021/09/21 23:35:33;;;;;;;5.95;4.38;;;16.30;99.90;;;;;;4994149;28;20456;-83
2021/09/21 23:37:59;;;;;;;6.50;4.45;;;16.20;99.90;;;;;;4994288;28;20034;-87
2021/09/21 23:40:25;;;;;;;8.55;5.07;;;16.20;99.90;;;;;;4994436;28;20022;-87
2021/09/21 23:42:51;;;;;;;10.27;4.57;;;16.20;99.90;;;;;;4994351;28;20038;-74
2021/09/21 23:45:17;;;;;;;6.75;4.10;;;16.20;99.90;;;;;;4994219;28;20077;-76
2021/09/21 23:47:43;;;;;;;5.00;4.32;;;16.20;99.90;;;;;;4993822;28;20524;-82
2021/09/21 23:50:10;;;;;;;6.13;4.57;;;16.20;99.90;;;;;;4994257;28;20476;-86
2021/09/21 23:52:36;;;;;;;5.88;4.95;;;16.10;99.90;;;;;;4994249;28;20037;-82
2021/09/21 23:55:03;;;;;;;6.68;5.07;;;16.10;99.90;;;;;;4994539;28;20042;-87
2021/09/21 23:57:28;;;;;;;8.82;4.68;;;16.10;99.90;;;;;;4994171;28;20033;-74
2021/09/21 23:59:55;;;;;;;6.43;5.00;;;16.10;99.90;;;;;;4994012;28;20034;-74
